Time;durP1;ratioP1;P1;durP2;ratioP2;P2;SDS_P1;SDS_P2;PMS_P1;PMS_P2;Temp;Humidity;BMP_temperature;BMP_pressure;BME280_temperature;BME280_humidity;BME280_pressure;Samples;Min_cycle;Max_cycle;Signal;HPM_P1;HPM_P2
2020/12/04 00:00:13;;;;;;;116.77;56.93;;;;;;;-1.90;100.00;97910.63;2090031;28;20245;-76
2020/12/04 00:01:14;;;;;;;118.50;57.00;;;;;;;-1.83;100.00;97920.88;2089324;28;20246;-76
2020/12/04 00:02:15;;;;;;;114.17;56.53;;;;;;;-1.98;100.00;97897.97;2089088;28;20226;-77
2020/12/04 00:03:16;;;;;;;119.05;57.72;;;;;;;-1.79;100.00;97925.38;2081275;28;20310;-75
2020/12/04 00:04:17;;;;;;;110.03;55.77;;;;;;;-1.79;100.00;97927.19;2089353;28;20223;-76
2020/12/04 00:05:18;;;;;;;115.43;56.38;;;;;;;-1.82;100.00;97930.31;2088966;28;20785;-78
2020/12/04 00:06:19;;;;;;;113.53;56.13;;;;;;;-1.86;100.00;97919.53;2089083;28;20605;-78
2020/12/04 00:07:20;;;;;;;117.68;56.67;;;;;;;-1.74;100.00;97932.47;2089295;28;20229;-77
2020/12/04 00:08:21;;;;;;;118.63;57.03;;;;;;;-1.64;100.00;97939.66;2089185;28;20268;-77
2020/12/04 00:09:22;;;;;;;120.60;57.83;;;;;;;-1.64;100.00;97929.22;2082641;28;20314;-77
2020/12/04 00:10:23;;;;;;;110.00;55.60;;;;;;;-1.69;100.00;97922.09;2080653;28;20239;-77
2020/12/04 00:11:24;;;;;;;122.75;57.50;;;;;;;-1.74;100.00;97917.59;2080949;28;20263;-76
2020/12/04 00:12:26;;;;;;;121.50;57.90;;;;;;;-1.62;100.00;97932.34;2080858;28;20231;-77
2020/12/04 00:13:27;;;;;;;110.50;54.85;;;;;;;-1.67;100.00;97924.44;2074668;28;20473;-77
2020/12/04 00:14:29;;;;;;;115.57;56.55;;;;;;;-1.69;100.00;97916.06;2073943;28;20311;-77
2020/12/04 00:15:31;;;;;;;119.07;57.40;;;;;;;-1.61;100.00;97923.47;2083014;28;20306;-78
2020/12/04 00:16:32;;;;;;;120.75;54.70;;;;;;;-1.60;100.00;97930.28;2081790;28;20252;-78
2020/12/04 00:17:33;;;;;;;108.45;55.03;;;;;;;-1.63;100.00;97921.13;2081667;28;20310;-76
2020/12/04 00:18:35;;;;;;;112.57;55.22;;;;;;;-1.82;100.00;97891.88;2081724;28;20222;-77
2020/12/04 00:19:35;;;;;;;116.30;55.13;;;;;;;-1.66;100.00;97918.19;2080789;28;20593;-78
2020/12/04 00:20:37;;;;;;;114.10;58.00;;;;;;;-1.78;100.00;97890.34;2081033;28;20249;-77
2020/12/04 00:21:37;;;;;;;109.25;55.40;;;;;;;-1.67;100.00;97914.00;2087551;28;20298;-77
2020/12/04 00:22:39;;;;;;;110.57;54.60;;;;;;;-1.86;100.00;97880.31;2089905;28;20226;-77
2020/12/04 00:23:39;;;;;;;113.70;56.13;;;;;;;-1.74;100.00;97901.09;2089237;28;20581;-77
2020/12/04 00:24:41;;;;;;;110.47;57.00;;;;;;;-1.69;100.00;97908.22;2089148;28;20299;-77
2020/12/04 00:25:41;;;;;;;111.70;55.55;;;;;;;-1.71;100.00;97909.25;2088985;28;20757;-78
2020/12/04 00:26:43;;;;;;;112.63;57.63;;;;;;;-1.76;100.00;97911.81;2089001;28;20639;-78
2020/12/04 00:27:44;;;;;;;120.35;56.65;;;;;;;-1.75;100.00;97907.38;2089624;28;20708;-75
2020/12/04 00:28:47;;;;;;;110.80;55.23;;;;;;;-1.80;100.00;97900.28;2089173;28;20605;-75
2020/12/04 00:29:48;;;;;;;114.78;55.50;;;;;;;-1.83;100.00;97892.09;2081132;28;20219;-78
2020/12/04 00:30:49;;;;;;;114.10;55.40;;;;;;;-1.78;100.00;97906.03;2089070;28;20219;-78
2020/12/04 00:31:50;;;;;;;115.97;57.13;;;;;;;-1.83;100.00;97900.72;2080937;28;20337;-78
2020/12/04 00:32:51;;;;;;;110.63;55.03;;;;;;;-1.90;100.00;97883.69;2080834;28;20274;-76
2020/12/04 00:33:52;;;;;;;115.53;57.33;;;;;;;-1.80;100.00;97899.47;2080303;28;20466;-76
2020/12/04 00:34:53;;;;;;;119.03;54.80;;;;;;;-1.86;100.00;97890.00;2082501;28;20227;-75
2020/12/04 00:35:54;;;;;;;119.22;58.55;;;;;;;-1.81;100.00;97897.91;2080609;28;20243;-77
2020/12/04 00:36:55;;;;;;;127.80;59.57;;;;;;;-1.81;100.00;97893.47;2081525;28;20219;-77
2020/12/04 00:37:56;;;;;;;112.90;56.22;;;;;;;-1.82;100.00;97899.72;2080414;28;20272;-77
2020/12/04 00:38:58;;;;;;;129.87;59.20;;;;;;;-1.80;100.00;97900.28;2080823;28;20235;-78
2020/12/04 00:39:58;;;;;;;104.60;53.92;;;;;;;-1.85;100.00;97892.34;2080665;28;20682;-76
2020/12/04 00:41:00;;;;;;;115.47;56.70;;;;;;;-1.83;100.00;97899.94;2072436;28;20232;-78
2020/12/04 00:42:01;;;;;;;119.63;56.75;;;;;;;-1.86;100.00;97896.00;2080737;28;20311;-77
2020/12/04 00:43:02;;;;;;;120.93;59.80;;;;;;;-1.85;100.00;97900.19;2080637;28;20220;-78
2020/12/04 00:44:04;;;;;;;113.97;57.15;;;;;;;-1.86;100.00;97895.22;2080606;28;20811;-75
2020/12/04 00:45:07;;;;;;;120.60;56.22;;;;;;;-1.94;100.00;97878.13;2086463;28;20628;-77
2020/12/04 00:46:12;;;;;;;114.05;57.70;;;;;;;-2.02;100.00;97865.50;2088577;28;20724;-76
2020/12/04 00:47:13;;;;;;;119.03;59.20;;;;;;;-1.96;100.00;97872.38;2088361;28;20233;-77
2020/12/04 00:48:14;;;;;;;120.40;61.45;;;;;;;-1.94;100.00;97872.13;2080620;28;20223;-76
2020/12/04 00:49:15;;;;;;;115.67;56.17;;;;;;;-2.00;100.00;97863.44;2088855;28;20753;-76
2020/12/04 00:50:17;;;;;;;118.63;58.03;;;;;;;-1.98;100.00;97871.03;2088944;28;21418;-77
2020/12/04 00:51:18;;;;;;;134.65;58.70;;;;;;;-2.02;100.00;97865.50;2088951;28;20228;-75
2020/12/04 00:52:20;;;;;;;113.90;57.60;;;;;;;-2.18;100.00;97837.59;2088950;28;20227;-76
2020/12/04 00:53:22;;;;;;;112.60;56.92;;;;;;;-2.10;100.00;97860.69;2080757;28;20226;-76
2020/12/04 00:54:23;;;;;;;111.80;57.08;;;;;;;-2.09;100.00;97863.06;2088595;28;20255;-75
2020/12/04 00:55:25;;;;;;;115.07;56.53;;;;;;;-2.07;100.00;97857.63;2089000;28;20298;-75
2020/12/04 00:56:30;;;;;;;116.18;55.38;;;;;;;-2.13;100.00;97845.53;2088723;28;20309;-76
2020/12/04 00:57:32;;;;;;;118.97;58.75;;;;;;;-2.11;100.00;97848.66;2089207;28;20215;-76
2020/12/04 00:58:33;;;;;;;112.32;55.25;;;;;;;-2.11;100.00;97851.28;2080637;28;20219;-75
2020/12/04 00:59:35;;;;;;;108.45;55.47;;;;;;;-2.21;100.00;97840.72;2080667;28;20243;-77
2020/12/04 01:00:36;;;;;;;104.03;53.95;;;;;;;-2.17;100.00;97847.84;2089374;28;20231;-75
2020/12/04 01:01:38;;;;;;;113.03;54.17;;;;;;;-2.17;100.00;97847.03;2082683;28;20230;-76
2020/12/04 01:02:38;;;;;;;111.45;51.97;;;;;;;-2.21;100.00;97840.72;2080496;28;20298;-76
2020/12/04 01:03:40;;;;;;;103.53;52.67;;;;;;;-2.18;100.00;97845.44;2081044;28;20227;-76
2020/12/04 01:04:41;;;;;;;101.10;51.35;;;;;;;-2.20;100.00;97837.84;2080585;28;20697;-75
2020/12/04 01:05:42;;;;;;;112.67;54.83;;;;;;;-2.19;100.00;97838.66;2073015;28;20621;-76
2020/12/04 01:06:43;;;;;;;99.63;49.90;;;;;;;-2.21;100.00;97851.97;2072154;28;20231;-75
2020/12/04 01:07:44;;;;;;;100.00;49.70;;;;;;;-2.21;100.00;97849.34;2072335;28;20367;-75
2020/12/04 01:08:45;;;;;;;97.50;50.20;;;;;;;-2.19;100.00;97857.72;2081100;28;20554;-74
2020/12/04 01:09:46;;;;;;;100.03;52.03;;;;;;;-2.21;100.00;97859.00;2080535;28;20285;-76
2020/12/04 01:10:47;;;;;;;112.45;52.60;;;;;;;-2.18;100.00;97861.13;2080981;28;20224;-76
2020/12/04 01:11:49;;;;;;;104.18;51.22;;;;;;;-2.24;100.00;97851.66;2080560;28;20771;-76
2020/12/04 01:12:50;;;;;;;103.97;51.40;;;;;;;-2.24;100.00;97862.91;2080501;28;20697;-76
2020/12/04 01:13:51;;;;;;;113.53;56.57;;;;;;;-2.15;100.00;97871.09;2081216;28;20585;-76
2020/12/04 01:14:53;;;;;;;124.22;62.72;;;;;;;-2.16;100.00;97864.31;2086341;28;20310;-77
2020/12/04 01:15:54;;;;;;;127.43;59.10;;;;;;;-2.13;100.00;97867.22;2081638;28;20223;-77
2020/12/04 01:16:55;;;;;;;125.10;60.45;;;;;;;-2.11;100.00;97869.56;2080609;28;20231;-75
2020/12/04 01:17:56;;;;;;;119.45;58.72;;;;;;;-2.11;100.00;97867.75;2088652;28;20306;-76
2020/12/04 01:18:58;;;;;;;117.70;59.42;;;;;;;-2.11;100.00;97867.75;2088800;28;20223;-77
2020/12/04 01:19:59;;;;;;;128.02;61.13;;;;;;;-2.15;100.00;97864.06;2080619;28;20219;-77
2020/12/04 01:21:00;;;;;;;124.33;60.30;;;;;;;-2.08;100.00;97856.84;2080342;28;20227;-78
2020/12/04 01:22:01;;;;;;;133.55;61.58;;;;;;;-2.06;100.00;97848.75;2089148;28;20246;-77
2020/12/04 01:23:02;;;;;;;131.70;60.67;;;;;;;-2.06;100.00;97841.69;2089373;28;20225;-76
2020/12/04 01:24:03;;;;;;;123.63;59.22;;;;;;;-2.08;100.00;97837.75;2088846;28;20765;-77
2020/12/04 01:25:04;;;;;;;119.63;59.33;;;;;;;-2.06;100.00;97831.25;2080326;28;20629;-76
2020/12/04 01:26:05;;;;;;;121.28;58.45;;;;;;;-2.05;100.00;97837.25;2080285;28;20310;-76
2020/12/04 01:27:06;;;;;;;115.17;57.40;;;;;;;-2.06;100.00;97844.31;2089305;28;20230;-77
2020/12/04 01:28:07;;;;;;;111.90;58.00;;;;;;;-2.14;100.00;97825.66;2088340;28;20226;-77
2020/12/04 01:29:09;;;;;;;122.83;59.53;;;;;;;-2.10;100.00;97835.34;2089041;28;20325;-76
2020/12/04 01:30:10;;;;;;;116.53;57.97;;;;;;;-2.24;100.00;97810.66;2089294;28;20247;-77
2020/12/04 01:31:12;;;;;;;117.63;55.92;;;;;;;-2.20;100.00;97810.94;2089291;28;20579;-77
2020/12/04 01:32:12;;;;;;;114.45;58.38;;;;;;;-2.14;100.00;97826.44;2088765;28;20637;-77
2020/12/04 01:33:14;;;;;;;124.60;58.20;;;;;;;-2.14;100.00;97820.44;2088475;28;20222;-77
2020/12/04 01:34:15;;;;;;;124.10;57.92;;;;;;;-2.21;100.00;97815.38;2089854;28;20310;-78
2020/12/04 01:35:16;;;;;;;113.27;59.50;;;;;;;-2.30;100.00;97812.41;2088728;28;20261;-76
2020/12/04 01:36:17;;;;;;;118.93;57.30;;;;;;;-2.19;100.00;97831.59;2080522;28;20963;-76
2020/12/04 01:37:18;;;;;;;120.70;59.03;;;;;;;-2.20;100.00;97831.84;2088717;28;20605;-77
2020/12/04 01:38:19;;;;;;;126.47;59.42;;;;;;;-2.20;100.00;97829.22;2080638;28;20235;-76
2020/12/04 01:39:21;;;;;;;118.20;58.97;;;;;;;-2.23;100.00;97829.72;2088642;28;20227;-76
2020/12/04 01:40:21;;;;;;;117.57;58.78;;;;;;;-2.24;100.00;97826.34;2089181;28;20226;-77
2020/12/04 01:41:23;;;;;;;129.83;59.33;;;;;;;-2.31;100.00;97826.50;2088206;28;20280;-77
2020/12/04 01:42:24;;;;;;;117.72;57.42;;;;;;;-2.33;100.00;97822.56;2080798;28;20234;-77
2020/12/04 01:43:25;;;;;;;120.67;57.73;;;;;;;-2.23;100.00;97827.13;2080042;28;20241;-77
2020/12/04 01:44:26;;;;;;;113.70;56.00;;;;;;;-2.32;100.00;97814.47;2088433;28;20644;-77
2020/12/04 01:45:32;;;;;;;117.72;57.53;;;;;;;-2.30;100.00;97812.41;2089577;28;20231;-77
2020/12/04 01:46:33;;;;;;;120.80;57.72;;;;;;;-2.26;100.00;97823.16;2089409;28;20215;-76
2020/12/04 01:47:34;;;;;;;119.40;58.13;;;;;;;-2.23;100.00;97820.06;2088624;28;20235;-78
2020/12/04 01:48:35;;;;;;;122.82;59.78;;;;;;;-2.16;100.00;97825.13;2080087;28;20533;-76
2020/12/04 01:49:36;;;;;;;118.33;57.60;;;;;;;-2.19;100.00;97828.97;2088522;28;20221;-75
2020/12/04 01:50:37;;;;;;;125.47;58.13;;;;;;;-2.21;100.00;97831.06;2080130;28;20223;-76
2020/12/04 01:51:38;;;;;;;113.70;58.30;;;;;;;-2.21;100.00;97827.66;2080135;28;20314;-77
2020/12/04 01:52:39;;;;;;;121.82;58.25;;;;;;;-2.28;100.00;97823.41;2080794;28;20234;-76
2020/12/04 01:53:44;;;;;;;130.13;59.20;;;;;;;-2.23;100.00;97832.34;2088325;28;20226;-76
2020/12/04 01:54:46;;;;;;;119.72;59.60;;;;;;;-2.28;100.00;97836.47;2088348;28;20230;-77
2020/12/04 01:55:49;;;;;;;122.00;59.35;;;;;;;-2.30;100.00;97829.91;2081081;28;20674;-78
2020/12/04 01:56:50;;;;;;;113.30;57.17;;;;;;;-2.34;100.00;97816.56;2080312;28;20741;-78
2020/12/04 01:57:52;;;;;;;118.55;58.80;;;;;;;-2.45;100.00;97803.59;2088606;28;20693;-77
2020/12/04 01:58:53;;;;;;;121.28;57.20;;;;;;;-2.35;100.00;97814.94;2087818;28;20222;-77
2020/12/04 01:59:54;;;;;;;117.83;59.43;;;;;;;-2.41;100.00;97792.44;2080143;28;20310;-75
2020/12/04 02:00:56;;;;;;;126.13;57.80;;;;;;;-2.29;100.00;97798.31;2081214;28;20231;-75
2020/12/04 02:02:05;;;;;;;122.28;60.20;;;;;;;-2.34;100.00;97795.66;2080045;28;20235;-76
2020/12/04 02:03:08;;;;;;;125.72;58.88;;;;;;;-2.41;100.00;97789.81;2081629;28;20744;-77
2020/12/04 02:04:10;;;;;;;117.00;57.47;;;;;;;-2.39;100.00;97800.81;2081875;28;20638;-78
2020/12/04 02:05:12;;;;;;;124.38;58.63;;;;;;;-2.44;100.00;97794.72;2080102;28;20302;-77
2020/12/04 02:06:19;;;;;;;118.00;57.67;;;;;;;-2.49;100.00;97800.69;2080702;28;20227;-78
2020/12/04 02:07:26;;;;;;;120.35;58.28;;;;;;;-2.56;100.00;97795.66;2079966;28;20289;-77
2020/12/04 02:08:32;;;;;;;115.18;57.47;;;;;;;-2.52;100.00;97798.53;2086939;28;20222;-77
2020/12/04 02:09:35;;;;;;;121.38;59.42;;;;;;;-2.51;100.00;97805.38;2088285;28;20222;-78
2020/12/04 02:10:39;;;;;;;115.35;58.72;;;;;;;-2.52;100.00;97809.00;2088109;28;20226;-77
2020/12/04 02:11:41;;;;;;;114.32;57.28;;;;;;;-2.51;100.00;97802.75;2088440;28;20313;-78
2020/12/04 02:12:42;;;;;;;122.05;58.30;;;;;;;-2.58;100.00;97787.28;2087920;28;20230;-77
2020/12/04 02:13:45;;;;;;;123.33;59.63;;;;;;;-2.59;100.00;97782.28;2088351;28;20242;-77
2020/12/04 02:14:47;;;;;;;115.70;57.80;;;;;;;-2.52;100.00;97785.50;2088139;28;20222;-76
2020/12/04 02:15:49;;;;;;;116.57;55.67;;;;;;;-2.52;100.00;97777.66;2088104;28;20264;-76
2020/12/04 02:17:00;;;;;;;118.72;58.95;;;;;;;-2.51;100.00;97768.81;2089140;28;20223;-77
2020/12/04 02:18:04;;;;;;;120.63;60.53;;;;;;;-2.48;100.00;97777.97;2087905;28;20218;-76
2020/12/04 02:19:05;;;;;;;127.90;59.25;;;;;;;-2.60;100.00;97768.44;2089749;28;20218;-76
2020/12/04 02:20:06;;;;;;;123.00;58.50;;;;;;;-2.61;100.00;97763.44;2088211;28;20264;-77
2020/12/04 02:21:08;;;;;;;113.75;55.92;;;;;;;-2.59;100.00;97761.41;2081535;28;20529;-77
2020/12/04 02:22:10;;;;;;;121.68;56.35;;;;;;;-2.54;100.00;97777.13;2081053;28;20588;-77
2020/12/04 02:23:12;;;;;;;115.68;56.80;;;;;;;-2.57;100.00;97775.78;2079671;28;20762;-76
2020/12/04 02:24:13;;;;;;;121.13;57.65;;;;;;;-2.52;100.00;97777.66;2072878;28;20564;-77
2020/12/04 02:25:14;;;;;;;120.18;58.45;;;;;;;-2.56;100.00;97779.97;2071726;28;20262;-77
2020/12/04 02:26:18;;;;;;;126.40;60.90;;;;;;;-2.62;100.00;97772.31;2074820;28;20750;-77
2020/12/04 02:27:19;;;;;;;122.53;58.35;;;;;;;-2.55;100.00;97778.16;2080348;28;20306;-77
2020/12/04 02:28:31;;;;;;;121.30;57.53;;;;;;;-2.59;100.00;97774.47;2080621;28;20258;-77
2020/12/04 02:29:32;;;;;;;123.95;59.58;;;;;;;-2.64;100.00;97769.16;2087941;28;20268;-76
2020/12/04 02:30:35;;;;;;;123.73;56.83;;;;;;;-2.59;100.00;97777.06;2088767;28;20219;-76
2020/12/04 02:31:36;;;;;;;126.13;57.92;;;;;;;-2.60;100.00;97784.13;2087820;28;20708;-76
2020/12/04 02:32:37;;;;;;;119.30;56.47;;;;;;;-2.62;100.00;97780.16;2079373;28;20649;-76
2020/12/04 02:33:38;;;;;;;116.53;57.40;;;;;;;-2.62;100.00;97780.94;2088092;28;20309;-76
2020/12/04 02:34:40;;;;;;;117.20;57.40;;;;;;;-2.63;100.00;97766.31;2088859;28;20214;-76
2020/12/04 02:35:41;;;;;;;125.55;58.95;;;;;;;-2.76;100.00;97752.84;2087991;28;20245;-76
2020/12/04 02:36:43;;;;;;;119.83;57.43;;;;;;;-2.74;100.00;97758.59;2079592;28;20238;-77
2020/12/04 02:37:44;;;;;;;119.35;57.13;;;;;;;-2.82;100.00;97741.53;2087751;28;20645;-76
2020/12/04 02:38:46;;;;;;;115.93;58.53;;;;;;;-2.71;100.00;97765.94;2088177;28;20246;-77
2020/12/04 02:39:46;;;;;;;119.80;59.88;;;;;;;-2.73;100.00;97762.78;2088758;28;20329;-76
2020/12/04 02:40:48;;;;;;;123.73;56.77;;;;;;;-2.75;100.00;97751.81;2089025;28;20223;-76
2020/12/04 02:41:49;;;;;;;117.47;58.17;;;;;;;-2.77;100.00;97753.88;2087870;28;20230;-77
2020/12/04 02:42:54;;;;;;;109.13;55.37;;;;;;;-2.87;100.00;97733.63;2088397;28;20229;-75
2020/12/04 02:43:55;;;;;;;121.47;58.20;;;;;;;-2.78;100.00;97754.88;2087687;28;20218;-76
2020/12/04 02:44:56;;;;;;;115.07;58.17;;;;;;;-2.78;100.00;97752.28;2087797;28;20381;-77
2020/12/04 02:45:57;;;;;;;126.32;57.35;;;;;;;-2.81;100.00;97747.53;2088161;28;20238;-77
2020/12/04 02:46:58;;;;;;;124.93;57.63;;;;;;;-2.82;100.00;97743.38;2087918;28;20219;-76
2020/12/04 02:47:59;;;;;;;123.78;58.03;;;;;;;-2.86;100.00;97732.63;2088218;28;20234;-78
2020/12/04 02:49:01;;;;;;;112.65;58.83;;;;;;;-2.87;100.00;97728.41;2088660;28;20245;-78
2020/12/04 02:50:03;;;;;;;115.10;56.85;;;;;;;-2.91;100.00;97725.50;2088657;28;20595;-76
2020/12/04 02:51:06;;;;;;;122.68;58.55;;;;;;;-2.89;100.00;97728.66;2088779;28;20260;-76
2020/12/04 02:52:08;;;;;;;117.03;56.35;;;;;;;-2.92;100.00;97723.94;2087520;28;20219;-77
2020/12/04 02:53:10;;;;;;;121.05;56.92;;;;;;;-3.15;100.00;97691.03;2088494;28;20223;-77
2020/12/04 02:54:11;;;;;;;118.38;54.88;;;;;;;-2.89;100.00;97733.88;2088706;28;20230;-78
2020/12/04 02:55:12;;;;;;;115.63;54.50;;;;;;;-2.89;100.00;97727.88;2087821;28;20241;-78
2020/12/04 02:56:16;;;;;;;125.97;57.03;;;;;;;-2.85;100.00;97732.38;2087991;28;20218;-77
2020/12/04 02:57:18;;;;;;;115.68;56.80;;;;;;;-2.85;100.00;97729.00;2087823;28;20238;-77
2020/12/04 02:58:19;;;;;;;117.25;56.05;;;;;;;-2.85;100.00;97726.38;2088105;28;20318;-76
2020/12/04 02:59:20;;;;;;;124.37;56.77;;;;;;;-2.81;100.00;97732.69;2088587;28;20226;-77
2020/12/04 03:00:21;;;;;;;107.20;56.35;;;;;;;-2.77;100.00;97727.78;2088202;28;20260;-76
2020/12/04 03:01:22;;;;;;;107.67;53.13;;;;;;;-2.76;100.00;97732.75;2078982;28;20231;-76
2020/12/04 03:02:23;;;;;;;120.97;54.92;;;;;;;-2.81;100.00;97717.03;2087913;28;20669;-76
2020/12/04 03:03:24;;;;;;;111.90;52.00;;;;;;;-2.86;100.00;97720.38;2087864;28;20569;-76
2020/12/04 03:04:25;;;;;;;106.47;54.08;;;;;;;-2.74;100.00;97733.28;2087900;28;20230;-77
2020/12/04 03:05:26;;;;;;;104.53;51.63;;;;;;;-2.77;100.00;97727.78;2088698;28;20227;-77
2020/12/04 03:06:27;;;;;;;104.13;52.47;;;;;;;-2.71;100.00;97727.56;2087545;28;20223;-77
2020/12/04 03:07:29;;;;;;;101.57;50.93;;;;;;;-2.66;100.00;97721.63;2079523;28;20223;-76
2020/12/04 03:08:30;;;;;;;97.85;49.03;;;;;;;-2.58;100.00;97732.44;2087860;28;20279;-77
2020/12/04 03:09:32;;;;;;;99.17;49.13;;;;;;;-2.54;100.00;97735.34;2087929;28;20230;-76
2020/12/04 03:10:32;;;;;;;99.70;50.55;;;;;;;-2.68;100.00;97708.06;2088601;28;20253;-79
2020/12/04 03:11:34;;;;;;;101.93;50.53;;;;;;;-2.49;100.00;97729.41;2088132;28;20222;-76
2020/12/04 03:12:35;;;;;;;98.65;49.67;;;;;;;-2.47;100.00;97732.56;2087894;28;20261;-77
2020/12/04 03:13:36;;;;;;;93.45;47.97;;;;;;;-2.41;100.00;97739.41;2087672;28;20284;-78
2020/12/04 03:14:37;;;;;;;103.07;50.40;;;;;;;-2.43;100.00;97739.66;2072899;28;20220;-76
2020/12/04 03:15:38;;;;;;;88.43;45.17;;;;;;;-2.33;100.00;97739.00;2081850;28;20230;-78
2020/12/04 03:16:39;;;;;;;91.75;46.88;;;;;;;-2.35;100.00;97731.38;2079566;28;20227;-77
2020/12/04 03:17:40;;;;;;;79.03;42.93;;;;;;;-2.28;100.00;97736.41;2079640;28;20218;-77
2020/12/04 03:18:41;;;;;;;88.45;45.40;;;;;;;-2.29;100.00;97729.63;2079481;28;20318;-77
2020/12/04 03:19:42;;;;;;;103.65;50.78;;;;;;;-2.32;100.00;97714.44;2071331;28;20286;-77
2020/12/04 03:20:43;;;;;;;108.63;53.83;;;;;;;-2.35;100.00;97718.31;2074451;28;20224;-77
2020/12/04 03:21:45;;;;;;;104.97;50.60;;;;;;;-2.29;100.00;97727.78;2072425;28;20231;-77
2020/12/04 03:22:46;;;;;;;104.38;52.20;;;;;;;-2.43;100.00;97716.16;2079656;28;20266;-77
2020/12/04 03:23:48;;;;;;;105.30;49.08;;;;;;;-2.37;100.00;97725.63;2080451;28;20227;-77
2020/12/04 03:24:48;;;;;;;90.38;47.22;;;;;;;-2.36;100.00;97727.19;2079706;28;20310;-77
2020/12/04 03:25:50;;;;;;;92.83;46.37;;;;;;;-2.36;100.00;97731.63;2085229;28;20298;-77
2020/12/04 03:26:50;;;;;;;95.60;48.22;;;;;;;-2.47;100.00;97709.06;2079511;28;20285;-77
2020/12/04 03:27:52;;;;;;;94.27;48.80;;;;;;;-2.37;100.00;97727.44;2087496;28;20211;-77
2020/12/04 03:28:53;;;;;;;93.32;47.13;;;;;;;-2.40;100.00;97728.72;2079161;28;20604;-77
2020/12/04 03:29:54;;;;;;;95.30;46.47;;;;;;;-2.46;100.00;97715.84;2079687;28;20223;-77
2020/12/04 03:30:55;;;;;;;93.28;47.83;;;;;;;-2.38;100.00;97729.25;2079587;28;20628;-78
2020/12/04 03:31:56;;;;;;;89.77;45.97;;;;;;;-2.37;100.00;97727.44;2087870;28;20231;-78
2020/12/04 03:33:00;;;;;;;79.80;44.08;;;;;;;-2.38;100.00;97718.03;2088001;28;20313;-78
2020/12/04 03:34:01;;;;;;;80.20;43.67;;;;;;;-2.28;100.00;97728.56;2087450;28;20214;-78
2020/12/04 03:35:02;;;;;;;87.18;45.95;;;;;;;-2.28;100.00;97720.75;2087712;28;20599;-79
2020/12/04 03:36:03;;;;;;;87.43;43.13;;;;;;;-2.23;100.00;97722.63;2088515;28;20238;-78
2020/12/04 03:37:04;;;;;;;89.30;43.55;;;;;;;-2.20;100.00;97728.13;2088627;28;20617;-78
2020/12/04 03:38:07;;;;;;;80.67;42.13;;;;;;;-2.20;100.00;97724.75;2087660;28;20244;-78
2020/12/04 03:39:07;;;;;;;86.43;43.67;;;;;;;-2.20;100.00;97724.75;2087431;28;20227;-77
2020/12/04 03:40:09;;;;;;;97.67;46.77;;;;;;;-2.16;100.00;97725.84;2087821;28;20308;-77
2020/12/04 03:41:11;;;;;;;80.95;44.38;;;;;;;-2.25;100.00;97712.44;2087608;28;20254;-76
2020/12/04 03:42:12;;;;;;;93.60;48.45;;;;;;;-2.19;100.00;97721.09;2087729;28;20226;-76
2020/12/04 03:43:13;;;;;;;84.55;42.63;;;;;;;-2.27;100.00;97706.63;2088342;28;20313;-77
2020/12/04 03:44:14;;;;;;;83.13;41.50;;;;;;;-2.21;100.00;97723.94;2088555;28;20223;-78
2020/12/04 03:45:15;;;;;;;82.40;41.40;;;;;;;-2.20;100.00;97720.31;2087789;28;20712;-78
2020/12/04 03:46:17;;;;;;;87.20;46.67;;;;;;;-2.18;100.00;97725.28;2087794;28;20576;-76
2020/12/04 03:47:17;;;;;;;86.07;43.53;;;;;;;-2.22;100.00;97725.00;2087317;28;20741;-75
2020/12/04 03:48:19;;;;;;;82.03;40.70;;;;;;;-2.25;100.00;97720.28;2079473;28;20278;-76
2020/12/04 03:49:20;;;;;;;89.15;44.40;;;;;;;-2.30;100.00;97710.53;2087693;28;20222;-78
2020/12/04 03:50:21;;;;;;;90.37;44.93;;;;;;;-2.31;100.00;97708.97;2087813;28;20227;-78
2020/12/04 03:51:22;;;;;;;80.22;43.05;;;;;;;-2.19;100.00;97728.94;2087601;28;20726;-76
2020/12/04 03:52:23;;;;;;;83.77;42.50;;;;;;;-2.33;100.00;97708.44;2079496;28;20625;-77
2020/12/04 03:53:25;;;;;;;85.97;44.08;;;;;;;-2.19;100.00;97727.09;2087731;28;20310;-77
2020/12/04 03:54:26;;;;;;;78.93;41.63;;;;;;;-2.19;100.00;97721.88;2088459;28;20593;-76
2020/12/04 03:55:27;;;;;;;84.85;42.25;;;;;;;-2.28;100.00;97715.53;2088522;28;20821;-77
2020/12/04 03:56:28;;;;;;;77.43;42.00;;;;;;;-2.21;100.00;97721.34;2087662;28;20570;-76
2020/12/04 03:57:29;;;;;;;87.80;43.22;;;;;;;-2.35;100.00;97702.66;2087898;28;20222;-77
2020/12/04 03:58:30;;;;;;;82.15;44.15;;;;;;;-2.21;100.00;97715.31;2088516;28;20665;-76
2020/12/04 03:59:31;;;;;;;90.63;46.83;;;;;;;-2.29;100.00;97706.09;2088511;28;20637;-77
2020/12/04 04:00:32;;;;;;;83.70;42.77;;;;;;;-2.31;100.00;97708.19;2088547;28;20223;-77
2020/12/04 04:01:33;;;;;;;91.43;43.47;;;;;;;-2.25;100.00;97714.25;2087635;28;20227;-78
2020/12/04 04:02:35;;;;;;;83.05;43.63;;;;;;;-2.23;100.00;97727.84;2087633;28;20219;-77
2020/12/04 04:03:36;;;;;;;93.00;46.60;;;;;;;-2.27;100.00;97720.50;2087633;28;20227;-77
2020/12/04 04:04:37;;;;;;;92.23;46.30;;;;;;;-2.23;100.00;97725.25;2087774;28;20225;-78
2020/12/04 04:05:38;;;;;;;89.22;47.13;;;;;;;-2.16;100.00;97713.56;2088147;28;20230;-78
2020/12/04 04:06:39;;;;;;;85.38;44.20;;;;;;;-2.09;100.00;97711.53;2088431;28;20701;-78
2020/12/04 04:07:40;;;;;;;82.93;42.97;;;;;;;-2.01;100.00;97710.28;2088384;28;20227;-77
2020/12/04 04:08:42;;;;;;;85.37;42.67;;;;;;;-1.89;100.00;97725.81;2088502;28;20231;-76
2020/12/04 04:09:43;;;;;;;81.00;43.97;;;;;;;-1.85;100.00;97719.84;2087830;28;20225;-76
2020/12/04 04:10:45;;;;;;;88.78;45.25;;;;;;;-1.86;100.00;97728.72;2079319;28;20251;-76
2020/12/04 04:11:46;;;;;;;82.18;43.88;;;;;;;-1.84;100.00;97731.09;2079314;28;20222;-76
2020/12/04 04:12:47;;;;;;;76.70;43.40;;;;;;;-1.85;100.00;97727.69;2087867;28;20230;-76
2020/12/04 04:13:48;;;;;;;83.43;44.45;;;;;;;-1.87;100.00;97724.53;2087473;28;20297;-76
2020/12/04 04:14:49;;;;;;;74.97;41.43;;;;;;;-2.00;100.00;97707.44;2087572;28;20226;-76
2020/12/04 04:15:50;;;;;;;83.55;42.95;;;;;;;-1.91;100.00;97720.84;2079441;28;20265;-76
2020/12/04 04:16:51;;;;;;;82.80;42.87;;;;;;;-1.92;100.00;97713.25;2079357;28;20226;-77
2020/12/04 04:17:52;;;;;;;79.13;42.17;;;;;;;-1.95;100.00;97709.31;2087322;28;20368;-76
2020/12/04 04:18:53;;;;;;;81.17;42.23;;;;;;;-2.09;100.00;97692.44;2088302;28;20223;-76
2020/12/04 04:19:54;;;;;;;84.65;44.28;;;;;;;-1.97;100.00;97728.88;2088326;28;20641;-76
2020/12/04 04:20:55;;;;;;;87.33;43.50;;;;;;;-1.98;100.00;97730.72;2087779;28;20226;-77
2020/12/04 04:21:56;;;;;;;82.35;45.20;;;;;;;-2.10;100.00;97709.16;2079586;28;20243;-77
2020/12/04 04:22:57;;;;;;;80.53;43.00;;;;;;;-2.01;100.00;97723.34;2079325;28;20227;-77
2020/12/04 04:23:59;;;;;;;78.78;42.47;;;;;;;-2.14;100.00;97703.66;2079411;28;20698;-76
2020/12/04 04:25:00;;;;;;;82.40;44.42;;;;;;;-2.10;100.00;97717.78;2087535;28;20242;-78
2020/12/04 04:26:01;;;;;;;87.38;42.85;;;;;;;-2.10;100.00;97720.41;2088433;28;20246;-76
2020/12/04 04:27:03;;;;;;;79.05;42.95;;;;;;;-2.14;100.00;97716.72;2088433;28;20616;-78
2020/12/04 04:28:10;;;;;;;86.40;44.35;;;;;;;-2.15;100.00;97711.75;2088320;28;20313;-76
2020/12/04 04:29:11;;;;;;;99.05;44.35;;;;;;;-2.18;100.00;97707.00;2088036;28;20242;-76
2020/12/04 04:30:12;;;;;;;82.72;43.70;;;;;;;-2.21;100.00;97705.66;2088393;28;20254;-76
2020/12/04 04:31:13;;;;;;;89.20;45.47;;;;;;;-2.23;100.00;97704.34;2088204;28;20222;-76
2020/12/04 04:32:14;;;;;;;83.78;44.80;;;;;;;-2.29;100.00;97698.28;2088201;28;20613;-76
2020/12/04 04:33:15;;;;;;;89.20;44.17;;;;;;;-2.32;100.00;97704.00;2087666;28;20223;-78
2020/12/04 04:34:16;;;;;;;81.90;41.95;;;;;;;-2.39;100.00;97709.41;2087739;28;20227;-75
2020/12/04 04:35:18;;;;;;;86.00;43.17;;;;;;;-2.35;100.00;97709.69;2087587;28;20210;-75
2020/12/04 04:36:19;;;;;;;83.70;43.70;;;;;;;-2.41;100.00;97701.03;2088137;28;20676;-78
2020/12/04 04:37:20;;;;;;;79.50;43.35;;;;;;;-2.47;100.00;97699.41;2089298;28;20772;-76